Dalton, Texas
Current Conditions -  °F | °C
As of 11:15 AM on Friday 19 Dec 2014 (Local Time) from KOSA Reporting Station
Overcast Overcast  
Wind Chill:   Ceiling: 500
Heat Index:   Visibility: 3mi
Dew Point:   Wind: 6mph
Humidity: 97%   Direction: 30°NNE
Pressure: 30.21"   Gusts: NA
Location:  33.2006°N, 94.6977°W
Report Text: KOSA 191715Z AUTO 03005KT 3SM OVC005 08/07 A3021 RMK AO1 T00750070
Loading
Personal Weather Stations






























Interactive Weather Map New forecast layout! Learn more

10-Day Weather Forecast

Advertisements
Track Severe Weather on mobile